sensor_id;sensor_type;location;lat;lon;timestamp;P1;durP1;ratioP1;P2;durP2;ratioP2
14377;SDS011;7272;53.668;9.578;2023-02-13T00:01:12;11.43;;;10.33;;
14377;SDS011;7272;53.668;9.578;2023-02-13T00:04:15;14.17;;;11.40;;
14377;SDS011;7272;53.668;9.578;2023-02-13T00:07:17;12.93;;;11.20;;
14377;SDS011;7272;53.668;9.578;2023-02-13T00:10:20;11.73;;;10.43;;
14377;SDS011;7272;53.668;9.578;2023-02-13T00:13:22;10.40;;;9.30;;
14377;SDS011;7272;53.668;9.578;2023-02-13T00:16:24;10.97;;;9.87;;
14377;SDS011;7272;53.668;9.578;2023-02-13T00:19:26;10.70;;;9.60;;
14377;SDS011;7272;53.668;9.578;2023-02-13T00:22:28;10.43;;;9.37;;
14377;SDS011;7272;53.668;9.578;2023-02-13T00:25:31;11.63;;;10.43;;
14377;SDS011;7272;53.668;9.578;2023-02-13T00:28:33;11.20;;;9.63;;
14377;SDS011;7272;53.668;9.578;2023-02-13T00:31:37;11.20;;;10.07;;
14377;SDS011;7272;53.668;9.578;2023-02-13T00:34:39;9.73;;;8.70;;
14377;SDS011;7272;53.668;9.578;2023-02-13T00:37:43;11.73;;;10.53;;
14377;SDS011;7272;53.668;9.578;2023-02-13T00:40:46;10.57;;;9.47;;
14377;SDS011;7272;53.668;9.578;2023-02-13T00:43:48;12.73;;;11.07;;
14377;SDS011;7272;53.668;9.578;2023-02-13T00:46:50;13.33;;;11.93;;
14377;SDS011;7272;53.668;9.578;2023-02-13T00:49:52;12.70;;;10.40;;
14377;SDS011;7272;53.668;9.578;2023-02-13T00:52:54;12.17;;;10.43;;
14377;SDS011;7272;53.668;9.578;2023-02-13T00:55:57;10.80;;;9.73;;
14377;SDS011;7272;53.668;9.578;2023-02-13T00:58:59;12.47;;;10.80;;
14377;SDS011;7272;53.668;9.578;2023-02-13T01:02:01;9.97;;;8.97;;
14377;SDS011;7272;53.668;9.578;2023-02-13T01:05:04;11.80;;;10.13;;
14377;SDS011;7272;53.668;9.578;2023-02-13T01:08:06;14.03;;;12.13;;
14377;SDS011;7272;53.668;9.578;2023-02-13T01:11:10;12.43;;;10.77;;
14377;SDS011;7272;53.668;9.578;2023-02-13T01:14:12;17.27;;;12.43;;
14377;SDS011;7272;53.668;9.578;2023-02-13T01:17:14;11.90;;;10.50;;
14377;SDS011;7272;53.668;9.578;2023-02-13T01:20:16;10.47;;;9.27;;
14377;SDS011;7272;53.668;9.578;2023-02-13T01:23:18;12.70;;;11.17;;
14377;SDS011;7272;53.668;9.578;2023-02-13T01:26:22;17.40;;;15.70;;
14377;SDS011;7272;53.668;9.578;2023-02-13T01:29:24;11.77;;;10.63;;
14377;SDS011;7272;53.668;9.578;2023-02-13T01:32:26;12.20;;;10.67;;
14377;SDS011;7272;53.668;9.578;2023-02-13T01:35:28;12.50;;;10.87;;
14377;SDS011;7272;53.668;9.578;2023-02-13T01:38:30;11.83;;;10.73;;
14377;SDS011;7272;53.668;9.578;2023-02-13T01:41:34;12.80;;;11.40;;
14377;SDS011;7272;53.668;9.578;2023-02-13T01:44:46;11.83;;;10.63;;
14377;SDS011;7272;53.668;9.578;2023-02-13T01:47:54;12.13;;;10.87;;
14377;SDS011;7272;53.668;9.578;2023-02-13T01:50:59;13.13;;;11.67;;
14377;SDS011;7272;53.668;9.578;2023-02-13T01:54:04;14.07;;;12.60;;
14377;SDS011;7272;53.668;9.578;2023-02-13T01:57:13;14.80;;;12.07;;
14377;SDS011;7272;53.668;9.578;2023-02-13T02:00:19;15.67;;;13.33;;
14377;SDS011;7272;53.668;9.578;2023-02-13T02:03:22;14.20;;;11.60;;
14377;SDS011;7272;53.668;9.578;2023-02-13T02:06:33;12.83;;;11.57;;
14377;SDS011;7272;53.668;9.578;2023-02-13T02:09:39;12.93;;;11.63;;
14377;SDS011;7272;53.668;9.578;2023-02-13T02:12:48;11.87;;;10.77;;
14377;SDS011;7272;53.668;9.578;2023-02-13T02:15:54;11.37;;;10.33;;
14377;SDS011;7272;53.668;9.578;2023-02-13T02:18:57;12.93;;;11.67;;
14377;SDS011;7272;53.668;9.578;2023-02-13T02:22:19;12.33;;;11.10;;
14377;SDS011;7272;53.668;9.578;2023-02-13T02:30:25;11.67;;;10.50;;
14377;SDS011;7272;53.668;9.578;2023-02-13T02:33:46;14.10;;;11.03;;
14377;SDS011;7272;53.668;9.578;2023-02-13T02:37:01;12.23;;;11.03;;
14377;SDS011;7272;53.668;9.578;2023-02-13T02:40:17;11.10;;;10.00;;
14377;SDS011;7272;53.668;9.578;2023-02-13T02:43:31;10.27;;;9.27;;
14377;SDS011;7272;53.668;9.578;2023-02-13T02:46:44;10.57;;;9.57;;
14377;SDS011;7272;53.668;9.578;2023-02-13T02:50:20;10.73;;;9.67;;
14377;SDS011;7272;53.668;9.578;2023-02-13T02:53:28;11.90;;;10.70;;
14377;SDS011;7272;53.668;9.578;2023-02-13T02:56:39;10.50;;;9.40;;
14377;SDS011;7272;53.668;9.578;2023-02-13T02:59:43;11.20;;;10.10;;
14377;SDS011;7272;53.668;9.578;2023-02-13T03:03:08;9.73;;;8.80;;
14377;SDS011;7272;53.668;9.578;2023-02-13T03:06:35;10.23;;;9.23;;
14377;SDS011;7272;53.668;9.578;2023-02-13T03:09:40;10.97;;;9.97;;
14377;SDS011;7272;53.668;9.578;2023-02-13T03:13:03;9.77;;;8.87;;
14377;SDS011;7272;53.668;9.578;2023-02-13T03:16:21;10.87;;;9.77;;
14377;SDS011;7272;53.668;9.578;2023-02-13T03:19:49;15.37;;;14.07;;
14377;SDS011;7272;53.668;9.578;2023-02-13T03:23:19;13.77;;;12.57;;
14377;SDS011;7272;53.668;9.578;2023-02-13T03:26:37;11.37;;;10.27;;
14377;SDS011;7272;53.668;9.578;2023-02-13T03:30:00;12.27;;;11.17;;
14377;SDS011;7272;53.668;9.578;2023-02-13T03:33:11;11.43;;;9.57;;
14377;SDS011;7272;53.668;9.578;2023-02-13T03:36:27;11.57;;;10.37;;
14377;SDS011;7272;53.668;9.578;2023-02-13T03:39:55;15.83;;;14.10;;
14377;SDS011;7272;53.668;9.578;2023-02-13T03:43:05;13.67;;;11.80;;
14377;SDS011;7272;53.668;9.578;2023-02-13T03:46:10;11.00;;;10.00;;
14377;SDS011;7272;53.668;9.578;2023-02-13T03:49:16;11.43;;;10.23;;
14377;SDS011;7272;53.668;9.578;2023-02-13T03:52:40;12.07;;;10.73;;
14377;SDS011;7272;53.668;9.578;2023-02-13T03:55:47;12.50;;;10.50;;
14377;SDS011;7272;53.668;9.578;2023-02-13T03:59:08;11.03;;;9.83;;
14377;SDS011;7272;53.668;9.578;2023-02-13T04:02:19;9.07;;;8.17;;
14377;SDS011;7272;53.668;9.578;2023-02-13T04:05:26;11.23;;;10.07;;
14377;SDS011;7272;53.668;9.578;2023-02-13T04:08:32;9.83;;;8.93;;
14377;SDS011;7272;53.668;9.578;2023-02-13T04:11:36;10.80;;;9.73;;
14377;SDS011;7272;53.668;9.578;2023-02-13T04:14:43;11.30;;;10.13;;
14377;SDS011;7272;53.668;9.578;2023-02-13T04:17:50;12.43;;;11.13;;
14377;SDS011;7272;53.668;9.578;2023-02-13T04:20:55;11.73;;;10.33;;
14377;SDS011;7272;53.668;9.578;2023-02-13T04:24:01;10.43;;;9.37;;
14377;SDS011;7272;53.668;9.578;2023-02-13T04:27:04;10.73;;;9.73;;
14377;SDS011;7272;53.668;9.578;2023-02-13T04:30:07;11.70;;;10.50;;
14377;SDS011;7272;53.668;9.578;2023-02-13T04:33:10;10.17;;;9.20;;
14377;SDS011;7272;53.668;9.578;2023-02-13T04:36:12;11.77;;;10.63;;
14377;SDS011;7272;53.668;9.578;2023-02-13T04:39:14;12.70;;;11.37;;
14377;SDS011;7272;53.668;9.578;2023-02-13T04:42:17;12.63;;;11.33;;
14377;SDS011;7272;53.668;9.578;2023-02-13T04:45:19;15.33;;;12.33;;
14377;SDS011;7272;53.668;9.578;2023-02-13T04:48:21;14.60;;;12.90;;
14377;SDS011;7272;53.668;9.578;2023-02-13T04:51:23;15.03;;;13.37;;
14377;SDS011;7272;53.668;9.578;2023-02-13T04:54:25;16.67;;;14.43;;
14377;SDS011;7272;53.668;9.578;2023-02-13T04:57:28;16.93;;;14.70;;
14377;SDS011;7272;53.668;9.578;2023-02-13T05:00:30;13.80;;;12.47;;
14377;SDS011;7272;53.668;9.578;2023-02-13T05:03:32;16.80;;;14.87;;
14377;SDS011;7272;53.668;9.578;2023-02-13T05:06:34;14.87;;;13.10;;
14377;SDS011;7272;53.668;9.578;2023-02-13T05:09:37;15.80;;;14.10;;
14377;SDS011;7272;53.668;9.578;2023-02-13T05:12:40;16.63;;;14.50;;
14377;SDS011;7272;53.668;9.578;2023-02-13T05:15:42;16.57;;;14.77;;
14377;SDS011;7272;53.668;9.578;2023-02-13T05:18:44;14.70;;;13.20;;
14377;SDS011;7272;53.668;9.578;2023-02-13T05:21:46;14.13;;;12.57;;
14377;SDS011;7272;53.668;9.578;2023-02-13T05:25:05;12.43;;;11.00;;
14377;SDS011;7272;53.668;9.578;2023-02-13T05:28:09;17.08;;;15.38;;
14377;SDS011;7272;53.668;9.578;2023-02-13T05:31:24;12.00;;;10.80;;
14377;SDS011;7272;53.668;9.578;2023-02-13T05:34:27;15.65;;;14.25;;
14377;SDS011;7272;53.668;9.578;2023-02-13T05:37:29;11.77;;;10.57;;
14377;SDS011;7272;53.668;9.578;2023-02-13T05:40:31;12.43;;;10.70;;
14377;SDS011;7272;53.668;9.578;2023-02-13T05:43:34;10.07;;;9.07;;
14377;SDS011;7272;53.668;9.578;2023-02-13T05:46:36;9.53;;;8.67;;
14377;SDS011;7272;53.668;9.578;2023-02-13T05:49:38;13.97;;;12.43;;
14377;SDS011;7272;53.668;9.578;2023-02-13T05:52:40;14.90;;;12.40;;
14377;SDS011;7272;53.668;9.578;2023-02-13T05:55:42;11.00;;;9.97;;
14377;SDS011;7272;53.668;9.578;2023-02-13T05:58:45;14.57;;;13.07;;
14377;SDS011;7272;53.668;9.578;2023-02-13T06:01:47;9.77;;;8.87;;
14377;SDS011;7272;53.668;9.578;2023-02-13T06:04:49;11.80;;;10.57;;
14377;SDS011;7272;53.668;9.578;2023-02-13T06:07:51;10.80;;;9.70;;
14377;SDS011;7272;53.668;9.578;2023-02-13T06:10:53;12.07;;;10.87;;
14377;SDS011;7272;53.668;9.578;2023-02-13T06:13:56;12.60;;;11.30;;
14377;SDS011;7272;53.668;9.578;2023-02-13T06:16:59;11.20;;;10.00;;
14377;SDS011;7272;53.668;9.578;2023-02-13T06:20:01;10.77;;;9.77;;
14377;SDS011;7272;53.668;9.578;2023-02-13T06:23:03;11.40;;;10.30;;
14377;SDS011;7272;53.668;9.578;2023-02-13T06:26:06;12.27;;;10.97;;
14377;SDS011;7272;53.668;9.578;2023-02-13T06:29:10;11.03;;;10.03;;
14377;SDS011;7272;53.668;9.578;2023-02-13T06:32:12;11.83;;;10.63;;
14377;SDS011;7272;53.668;9.578;2023-02-13T06:35:14;12.40;;;11.20;;
14377;SDS011;7272;53.668;9.578;2023-02-13T06:38:17;11.70;;;10.50;;
14377;SDS011;7272;53.668;9.578;2023-02-13T06:41:19;11.97;;;10.67;;
14377;SDS011;7272;53.668;9.578;2023-02-13T06:44:22;11.83;;;10.40;;
14377;SDS011;7272;53.668;9.578;2023-02-13T06:47:24;11.10;;;9.90;;
14377;SDS011;7272;53.668;9.578;2023-02-13T06:50:26;9.83;;;8.93;;
14377;SDS011;7272;53.668;9.578;2023-02-13T06:53:28;11.10;;;9.83;;
14377;SDS011;7272;53.668;9.578;2023-02-13T06:56:30;11.83;;;10.73;;
14377;SDS011;7272;53.668;9.578;2023-02-13T06:59:34;11.67;;;10.47;;
14377;SDS011;7272;53.668;9.578;2023-02-13T07:02:36;11.63;;;10.43;;
14377;SDS011;7272;53.668;9.578;2023-02-13T07:05:38;11.60;;;10.50;;
14377;SDS011;7272;53.668;9.578;2023-02-13T07:08:41;15.10;;;13.37;;
14377;SDS011;7272;53.668;9.578;2023-02-13T07:11:42;15.73;;;14.13;;
14377;SDS011;7272;53.668;9.578;2023-02-13T07:14:46;12.87;;;11.57;;
14377;SDS011;7272;53.668;9.578;2023-02-13T07:17:50;13.73;;;12.33;;
14377;SDS011;7272;53.668;9.578;2023-02-13T07:20:56;14.13;;;12.70;;
14377;SDS011;7272;53.668;9.578;2023-02-13T07:23:58;12.57;;;11.10;;
14377;SDS011;7272;53.668;9.578;2023-02-13T07:27:00;13.73;;;12.37;;
14377;SDS011;7272;53.668;9.578;2023-02-13T07:30:04;14.73;;;12.73;;
14377;SDS011;7272;53.668;9.578;2023-02-13T07:33:08;13.47;;;12.17;;
14377;SDS011;7272;53.668;9.578;2023-02-13T07:36:10;13.17;;;11.73;;
14377;SDS011;7272;53.668;9.578;2023-02-13T07:39:12;11.23;;;10.03;;
14377;SDS011;7272;53.668;9.578;2023-02-13T07:42:14;12.10;;;10.67;;
14377;SDS011;7272;53.668;9.578;2023-02-13T07:45:17;10.83;;;9.83;;
14377;SDS011;7272;53.668;9.578;2023-02-13T07:48:19;13.83;;;12.10;;
14377;SDS011;7272;53.668;9.578;2023-02-13T07:51:21;12.30;;;10.73;;
14377;SDS011;7272;53.668;9.578;2023-02-13T07:54:24;13.33;;;10.57;;
14377;SDS011;7272;53.668;9.578;2023-02-13T07:57:26;10.83;;;9.73;;
14377;SDS011;7272;53.668;9.578;2023-02-13T08:00:29;12.20;;;10.90;;
14377;SDS011;7272;53.668;9.578;2023-02-13T08:03:31;9.70;;;8.70;;
14377;SDS011;7272;53.668;9.578;2023-02-13T08:06:33;11.67;;;10.47;;
14377;SDS011;7272;53.668;9.578;2023-02-13T08:09:35;11.93;;;10.83;;
14377;SDS011;7272;53.668;9.578;2023-02-13T08:12:57;12.57;;;11.30;;
14377;SDS011;7272;53.668;9.578;2023-02-13T08:16:00;20.20;;;18.20;;
14377;SDS011;7272;53.668;9.578;2023-02-13T08:19:02;16.40;;;14.10;;
14377;SDS011;7272;53.668;9.578;2023-02-13T08:22:04;14.03;;;12.63;;
14377;SDS011;7272;53.668;9.578;2023-02-13T08:25:06;14.50;;;12.67;;
14377;SDS011;7272;53.668;9.578;2023-02-13T08:28:08;16.90;;;14.20;;
14377;SDS011;7272;53.668;9.578;2023-02-13T08:31:12;13.33;;;11.97;;
14377;SDS011;7272;53.668;9.578;2023-02-13T08:34:14;16.10;;;13.43;;
14377;SDS011;7272;53.668;9.578;2023-02-13T08:37:16;16.43;;;14.70;;
14377;SDS011;7272;53.668;9.578;2023-02-13T08:40:18;15.40;;;12.47;;
14377;SDS011;7272;53.668;9.578;2023-02-13T08:43:20;12.23;;;11.00;;
14377;SDS011;7272;53.668;9.578;2023-02-13T08:46:23;12.20;;;11.03;;
14377;SDS011;7272;53.668;9.578;2023-02-13T08:49:25;14.37;;;12.67;;
14377;SDS011;7272;53.668;9.578;2023-02-13T08:52:27;13.70;;;12.23;;
14377;SDS011;7272;53.668;9.578;2023-02-13T08:55:29;11.33;;;10.13;;
14377;SDS011;7272;53.668;9.578;2023-02-13T08:58:31;17.37;;;14.17;;
14377;SDS011;7272;53.668;9.578;2023-02-13T09:01:35;15.77;;;14.07;;
14377;SDS011;7272;53.668;9.578;2023-02-13T09:04:37;15.60;;;14.07;;
14377;SDS011;7272;53.668;9.578;2023-02-13T09:07:38;15.30;;;13.70;;
14377;SDS011;7272;53.668;9.578;2023-02-13T09:10:40;12.77;;;11.47;;
14377;SDS011;7272;53.668;9.578;2023-02-13T09:13:43;16.53;;;14.80;;
14377;SDS011;7272;53.668;9.578;2023-02-13T09:16:48;17.10;;;15.30;;
14377;SDS011;7272;53.668;9.578;2023-02-13T09:19:50;17.17;;;15.40;;
14377;SDS011;7272;53.668;9.578;2023-02-13T09:22:53;14.87;;;13.30;;
14377;SDS011;7272;53.668;9.578;2023-02-13T09:25:57;16.23;;;14.60;;
14377;SDS011;7272;53.668;9.578;2023-02-13T09:28:59;15.57;;;14.00;;
14377;SDS011;7272;53.668;9.578;2023-02-13T09:32:02;15.67;;;14.07;;
14377;SDS011;7272;53.668;9.578;2023-02-13T09:35:05;17.23;;;15.10;;
14377;SDS011;7272;53.668;9.578;2023-02-13T09:38:07;17.93;;;16.03;;
14377;SDS011;7272;53.668;9.578;2023-02-13T09:41:09;15.37;;;13.30;;
14377;SDS011;7272;53.668;9.578;2023-02-13T09:44:15;15.70;;;14.03;;
14377;SDS011;7272;53.668;9.578;2023-02-13T09:47:40;16.23;;;14.50;;
14377;SDS011;7272;53.668;9.578;2023-02-13T09:50:44;14.30;;;12.83;;
14377;SDS011;7272;53.668;9.578;2023-02-13T09:53:47;14.83;;;13.27;;
14377;SDS011;7272;53.668;9.578;2023-02-13T09:56:54;16.00;;;14.30;;
14377;SDS011;7272;53.668;9.578;2023-02-13T10:00:03;15.17;;;13.60;;
14377;SDS011;7272;53.668;9.578;2023-02-13T10:03:24;12.60;;;11.30;;
14377;SDS011;7272;53.668;9.578;2023-02-13T10:06:30;12.97;;;11.50;;
14377;SDS011;7272;53.668;9.578;2023-02-13T10:09:51;14.30;;;12.83;;
14377;SDS011;7272;53.668;9.578;2023-02-13T10:13:02;14.40;;;12.90;;
14377;SDS011;7272;53.668;9.578;2023-02-13T10:16:15;13.80;;;12.40;;
14377;SDS011;7272;53.668;9.578;2023-02-13T10:19:26;14.80;;;13.13;;
14377;SDS011;7272;53.668;9.578;2023-02-13T10:22:36;15.83;;;14.17;;
14377;SDS011;7272;53.668;9.578;2023-02-13T10:25:45;16.57;;;14.70;;
14377;SDS011;7272;53.668;9.578;2023-02-13T10:28:53;16.17;;;14.57;;
14377;SDS011;7272;53.668;9.578;2023-02-13T10:32:17;15.37;;;13.87;;
14377;SDS011;7272;53.668;9.578;2023-02-13T10:35:28;16.50;;;14.77;;
14377;SDS011;7272;53.668;9.578;2023-02-13T10:38:32;15.93;;;14.33;;
14377;SDS011;7272;53.668;9.578;2023-02-13T10:41:38;20.10;;;18.02;;
14377;SDS011;7272;53.668;9.578;2023-02-13T10:44:53;18.17;;;16.30;;
14377;SDS011;7272;53.668;9.578;2023-02-13T10:48:05;19.88;;;18.05;;
14377;SDS011;7272;53.668;9.578;2023-02-13T10:51:19;16.43;;;14.83;;
14377;SDS011;7272;53.668;9.578;2023-02-13T10:54:33;17.27;;;15.57;;
14377;SDS011;7272;53.668;9.578;2023-02-13T10:57:56;15.20;;;13.23;;
14377;SDS011;7272;53.668;9.578;2023-02-13T11:01:09;15.67;;;13.97;;
14377;SDS011;7272;53.668;9.578;2023-02-13T11:04:17;16.07;;;14.40;;
14377;SDS011;7272;53.668;9.578;2023-02-13T11:07:22;14.10;;;12.70;;
14377;SDS011;7272;53.668;9.578;2023-02-13T11:10:26;16.03;;;13.70;;
14377;SDS011;7272;53.668;9.578;2023-02-13T11:13:28;14.37;;;12.87;;
14377;SDS011;7272;53.668;9.578;2023-02-13T11:16:36;13.17;;;11.80;;
14377;SDS011;7272;53.668;9.578;2023-02-13T11:19:47;14.20;;;12.90;;
14377;SDS011;7272;53.668;9.578;2023-02-13T11:22:53;14.40;;;13.10;;
14377;SDS011;7272;53.668;9.578;2023-02-13T11:25:56;13.57;;;11.87;;
14377;SDS011;7272;53.668;9.578;2023-02-13T11:29:03;12.93;;;11.63;;
14377;SDS011;7272;53.668;9.578;2023-02-13T11:32:19;13.60;;;12.23;;
14377;SDS011;7272;53.668;9.578;2023-02-13T11:35:26;13.43;;;12.03;;
14377;SDS011;7272;53.668;9.578;2023-02-13T11:38:31;11.87;;;10.77;;
14377;SDS011;7272;53.668;9.578;2023-02-13T11:41:36;13.60;;;12.30;;
14377;SDS011;7272;53.668;9.578;2023-02-13T11:44:41;13.67;;;12.23;;
14377;SDS011;7272;53.668;9.578;2023-02-13T11:47:49;14.50;;;13.00;;
14377;SDS011;7272;53.668;9.578;2023-02-13T11:50:52;13.33;;;11.50;;
14377;SDS011;7272;53.668;9.578;2023-02-13T11:53:56;14.97;;;13.40;;
14377;SDS011;7272;53.668;9.578;2023-02-13T11:57:01;15.67;;;14.03;;
14377;SDS011;7272;53.668;9.578;2023-02-13T12:00:25;14.57;;;13.07;;
14377;SDS011;7272;53.668;9.578;2023-02-13T12:03:31;15.00;;;13.50;;
14377;SDS011;7272;53.668;9.578;2023-02-13T12:06:33;18.07;;;14.10;;
14377;SDS011;7272;53.668;9.578;2023-02-13T12:09:41;15.17;;;13.47;;
14377;SDS011;7272;53.668;9.578;2023-02-13T12:12:47;15.47;;;13.93;;
14377;SDS011;7272;53.668;9.578;2023-02-13T12:15:56;14.30;;;12.80;;
14377;SDS011;7272;53.668;9.578;2023-02-13T12:19:04;16.53;;;14.23;;
14377;SDS011;7272;53.668;9.578;2023-02-13T12:25:43;14.77;;;13.27;;
14377;SDS011;7272;53.668;9.578;2023-02-13T12:29:02;15.97;;;14.27;;
14377;SDS011;7272;53.668;9.578;2023-02-13T12:32:18;14.37;;;12.67;;
14377;SDS011;7272;53.668;9.578;2023-02-13T12:35:25;15.17;;;13.63;;
14377;SDS011;7272;53.668;9.578;2023-02-13T12:38:43;20.20;;;18.30;;
14377;SDS011;7272;53.668;9.578;2023-02-13T12:41:59;17.08;;;15.27;;
14377;SDS011;7272;53.668;9.578;2023-02-13T12:45:20;17.07;;;15.37;;
14377;SDS011;7272;53.668;9.578;2023-02-13T12:48:34;16.17;;;14.47;;
14377;SDS011;7272;53.668;9.578;2023-02-13T12:51:47;17.07;;;15.27;;
14377;SDS011;7272;53.668;9.578;2023-02-13T12:55:00;14.63;;;13.20;;
14377;SDS011;7272;53.668;9.578;2023-02-13T12:58:21;17.67;;;14.60;;
14377;SDS011;7272;53.668;9.578;2023-02-13T13:01:44;17.63;;;15.27;;
14377;SDS011;7272;53.668;9.578;2023-02-13T13:05:00;16.47;;;14.77;;
14377;SDS011;7272;53.668;9.578;2023-02-13T13:08:19;18.20;;;15.40;;
14377;SDS011;7272;53.668;9.578;2023-02-13T13:11:37;16.50;;;14.80;;
14377;SDS011;7272;53.668;9.578;2023-02-13T13:14:58;17.07;;;15.27;;
14377;SDS011;7272;53.668;9.578;2023-02-13T13:18:14;17.27;;;15.37;;
14377;SDS011;7272;53.668;9.578;2023-02-13T13:21:29;16.83;;;15.07;;
14377;SDS011;7272;53.668;9.578;2023-02-13T13:24:41;18.43;;;15.77;;
14377;SDS011;7272;53.668;9.578;2023-02-13T13:27:50;16.87;;;15.07;;
14377;SDS011;7272;53.668;9.578;2023-02-13T13:30:57;17.43;;;14.70;;
14377;SDS011;7272;53.668;9.578;2023-02-13T13:34:00;18.23;;;15.93;;
14377;SDS011;7272;53.668;9.578;2023-02-13T13:37:06;17.60;;;14.90;;
14377;SDS011;7272;53.668;9.578;2023-02-13T13:40:20;16.00;;;14.37;;
14377;SDS011;7272;53.668;9.578;2023-02-13T13:43:31;15.20;;;13.47;;
14377;SDS011;7272;53.668;9.578;2023-02-13T13:46:46;16.90;;;14.50;;
14377;SDS011;7272;53.668;9.578;2023-02-13T13:49:54;15.13;;;13.43;;
14377;SDS011;7272;53.668;9.578;2023-02-13T13:53:09;16.17;;;14.00;;
14377;SDS011;7272;53.668;9.578;2023-02-13T13:56:12;15.40;;;13.03;;
14377;SDS011;7272;53.668;9.578;2023-02-13T13:59:15;14.47;;;12.77;;
14377;SDS011;7272;53.668;9.578;2023-02-13T14:05:58;13.70;;;12.30;;
14377;SDS011;7272;53.668;9.578;2023-02-13T14:09:03;13.77;;;12.37;;
14377;SDS011;7272;53.668;9.578;2023-02-13T14:12:43;14.40;;;12.90;;
14377;SDS011;7272;53.668;9.578;2023-02-13T14:15:50;15.00;;;13.23;;
14377;SDS011;7272;53.668;9.578;2023-02-13T14:18:55;14.63;;;13.23;;
14377;SDS011;7272;53.668;9.578;2023-02-13T14:25:32;15.83;;;14.27;;
14377;SDS011;7272;53.668;9.578;2023-02-13T14:28:34;16.87;;;15.17;;
14377;SDS011;7272;53.668;9.578;2023-02-13T14:31:36;16.47;;;14.83;;
14377;SDS011;7272;53.668;9.578;2023-02-13T14:34:42;16.33;;;14.53;;
14377;SDS011;7272;53.668;9.578;2023-02-13T14:37:53;16.37;;;14.73;;
14377;SDS011;7272;53.668;9.578;2023-02-13T14:40:57;17.70;;;15.80;;
14377;SDS011;7272;53.668;9.578;2023-02-13T14:43:59;16.80;;;15.07;;
14377;SDS011;7272;53.668;9.578;2023-02-13T14:47:02;16.83;;;15.03;;
14377;SDS011;7272;53.668;9.578;2023-02-13T14:50:12;15.73;;;14.13;;
14377;SDS011;7272;53.668;9.578;2023-02-13T14:53:20;16.43;;;13.80;;
14377;SDS011;7272;53.668;9.578;2023-02-13T14:56:25;16.27;;;14.57;;
14377;SDS011;7272;53.668;9.578;2023-02-13T14:59:30;15.93;;;14.30;;
14377;SDS011;7272;53.668;9.578;2023-02-13T15:02:38;15.57;;;13.83;;
14377;SDS011;7272;53.668;9.578;2023-02-13T15:05:48;15.77;;;14.17;;
14377;SDS011;7272;53.668;9.578;2023-02-13T15:08:53;15.03;;;13.53;;
14377;SDS011;7272;53.668;9.578;2023-02-13T15:11:56;14.67;;;13.17;;
14377;SDS011;7272;53.668;9.578;2023-02-13T15:14:59;14.13;;;12.20;;
14377;SDS011;7272;53.668;9.578;2023-02-13T15:18:02;14.60;;;13.10;;
14377;SDS011;7272;53.668;9.578;2023-02-13T15:21:12;14.37;;;12.30;;
14377;SDS011;7272;53.668;9.578;2023-02-13T15:24:15;12.43;;;11.13;;
14377;SDS011;7272;53.668;9.578;2023-02-13T15:27:19;15.70;;;14.13;;
14377;SDS011;7272;53.668;9.578;2023-02-13T15:30:25;14.83;;;13.43;;
14377;SDS011;7272;53.668;9.578;2023-02-13T15:33:29;14.73;;;13.33;;
14377;SDS011;7272;53.668;9.578;2023-02-13T15:36:38;15.10;;;13.37;;
14377;SDS011;7272;53.668;9.578;2023-02-13T15:39:41;14.97;;;13.57;;
14377;SDS011;7272;53.668;9.578;2023-02-13T15:42:43;13.40;;;11.80;;
14377;SDS011;7272;53.668;9.578;2023-02-13T15:45:45;13.80;;;12.37;;
14377;SDS011;7272;53.668;9.578;2023-02-13T15:48:47;18.30;;;16.60;;
14377;SDS011;7272;53.668;9.578;2023-02-13T15:51:51;16.50;;;14.87;;
14377;SDS011;7272;53.668;9.578;2023-02-13T15:55:03;14.03;;;12.57;;
14377;SDS011;7272;53.668;9.578;2023-02-13T15:58:09;15.23;;;13.40;;
14377;SDS011;7272;53.668;9.578;2023-02-13T16:01:13;12.83;;;11.53;;
14377;SDS011;7272;53.668;9.578;2023-02-13T16:04:17;13.10;;;11.80;;
14377;SDS011;7272;53.668;9.578;2023-02-13T16:07:23;13.60;;;12.20;;
14377;SDS011;7272;53.668;9.578;2023-02-13T16:10:25;10.13;;;9.17;;
14377;SDS011;7272;53.668;9.578;2023-02-13T16:13:29;11.70;;;10.60;;
14377;SDS011;7272;53.668;9.578;2023-02-13T16:16:32;14.20;;;12.80;;
14377;SDS011;7272;53.668;9.578;2023-02-13T16:19:37;14.83;;;13.17;;
14377;SDS011;7272;53.668;9.578;2023-02-13T16:22:48;12.33;;;11.03;;
14377;SDS011;7272;53.668;9.578;2023-02-13T16:25:52;10.63;;;9.63;;
14377;SDS011;7272;53.668;9.578;2023-02-13T16:29:06;9.13;;;8.23;;
14377;SDS011;7272;53.668;9.578;2023-02-13T16:32:11;8.77;;;7.97;;
14377;SDS011;7272;53.668;9.578;2023-02-13T16:35:25;8.60;;;7.70;;
14377;SDS011;7272;53.668;9.578;2023-02-13T16:38:31;9.67;;;8.70;;
14377;SDS011;7272;53.668;9.578;2023-02-13T16:41:34;10.13;;;9.13;;
14377;SDS011;7272;53.668;9.578;2023-02-13T16:44:36;10.47;;;9.43;;
14377;SDS011;7272;53.668;9.578;2023-02-13T16:47:38;8.63;;;7.83;;
14377;SDS011;7272;53.668;9.578;2023-02-13T16:50:40;8.90;;;8.00;;
14377;SDS011;7272;53.668;9.578;2023-02-13T16:53:44;11.83;;;10.43;;
14377;SDS011;7272;53.668;9.578;2023-02-13T16:56:46;14.87;;;13.37;;
14377;SDS011;7272;53.668;9.578;2023-02-13T16:59:52;11.37;;;10.17;;
14377;SDS011;7272;53.668;9.578;2023-02-13T17:02:58;13.10;;;11.33;;
14377;SDS011;7272;53.668;9.578;2023-02-13T17:06:01;9.77;;;8.87;;
14377;SDS011;7272;53.668;9.578;2023-02-13T17:09:05;10.63;;;9.53;;
14377;SDS011;7272;53.668;9.578;2023-02-13T17:12:10;10.03;;;9.03;;
14377;SDS011;7272;53.668;9.578;2023-02-13T17:15:15;12.17;;;9.93;;
14377;SDS011;7272;53.668;9.578;2023-02-13T17:18:19;11.10;;;9.97;;
14377;SDS011;7272;53.668;9.578;2023-02-13T17:21:21;9.60;;;8.60;;
14377;SDS011;7272;53.668;9.578;2023-02-13T17:24:25;15.43;;;14.02;;
14377;SDS011;7272;53.668;9.578;2023-02-13T17:27:27;10.83;;;9.83;;
14377;SDS011;7272;53.668;9.578;2023-02-13T17:30:29;15.85;;;14.50;;
14377;SDS011;7272;53.668;9.578;2023-02-13T17:33:32;12.70;;;11.47;;
14377;SDS011;7272;53.668;9.578;2023-02-13T17:36:37;11.80;;;10.60;;
14377;SDS011;7272;53.668;9.578;2023-02-13T17:39:40;10.53;;;9.57;;
14377;SDS011;7272;53.668;9.578;2023-02-13T17:42:42;10.53;;;9.47;;
14377;SDS011;7272;53.668;9.578;2023-02-13T17:45:46;10.93;;;9.83;;
14377;SDS011;7272;53.668;9.578;2023-02-13T17:48:48;10.93;;;9.83;;
14377;SDS011;7272;53.668;9.578;2023-02-13T17:51:50;11.87;;;10.20;;
14377;SDS011;7272;53.668;9.578;2023-02-13T17:54:53;10.27;;;9.27;;
14377;SDS011;7272;53.668;9.578;2023-02-13T17:57:56;10.90;;;9.47;;
14377;SDS011;7272;53.668;9.578;2023-02-13T18:00:59;13.47;;;11.30;;
14377;SDS011;7272;53.668;9.578;2023-02-13T18:04:01;12.00;;;10.80;;
14377;SDS011;7272;53.668;9.578;2023-02-13T18:07:02;15.00;;;13.23;;
14377;SDS011;7272;53.668;9.578;2023-02-13T18:10:07;13.13;;;11.73;;
14377;SDS011;7272;53.668;9.578;2023-02-13T18:13:11;14.70;;;13.10;;
14377;SDS011;7272;53.668;9.578;2023-02-13T18:16:13;16.50;;;13.63;;
14377;SDS011;7272;53.668;9.578;2023-02-13T18:19:15;17.53;;;15.30;;
14377;SDS011;7272;53.668;9.578;2023-02-13T18:22:17;16.27;;;14.33;;
14377;SDS011;7272;53.668;9.578;2023-02-13T18:25:20;14.07;;;12.57;;
14377;SDS011;7272;53.668;9.578;2023-02-13T18:28:22;13.27;;;11.87;;
14377;SDS011;7272;53.668;9.578;2023-02-13T18:31:24;14.13;;;12.30;;
14377;SDS011;7272;53.668;9.578;2023-02-13T18:34:26;10.63;;;9.10;;
14377;SDS011;7272;53.668;9.578;2023-02-13T18:37:28;12.03;;;10.73;;
14377;SDS011;7272;53.668;9.578;2023-02-13T18:40:34;12.70;;;10.80;;
14377;SDS011;7272;53.668;9.578;2023-02-13T18:43:36;12.40;;;11.10;;
14377;SDS011;7272;53.668;9.578;2023-02-13T18:46:38;10.47;;;9.37;;